sensor_id;sensor_type;location;lat;lon;timestamp;temperature;humidity
6724;DHT22;3399;52.530;13.304;2022-08-03T00:01:17;20.80;93.40
6724;DHT22;3399;52.530;13.304;2022-08-03T00:03:43;20.80;93.70
6724;DHT22;3399;52.530;13.304;2022-08-03T00:06:08;21.00;94.00
6724;DHT22;3399;52.530;13.304;2022-08-03T00:08:34;21.20;93.70
6724;DHT22;3399;52.530;13.304;2022-08-03T00:10:59;21.20;93.50
6724;DHT22;3399;52.530;13.304;2022-08-03T00:13:25;21.00;94.00
6724;DHT22;3399;52.530;13.304;2022-08-03T00:15:50;20.90;94.50
6724;DHT22;3399;52.530;13.304;2022-08-03T00:18:16;20.80;94.90
6724;DHT22;3399;52.530;13.304;2022-08-03T00:20:41;20.70;95.20
6724;DHT22;3399;52.530;13.304;2022-08-03T00:23:07;20.50;94.30
6724;DHT22;3399;52.530;13.304;2022-08-03T00:25:33;20.50;95.00
6724;DHT22;3399;52.530;13.304;2022-08-03T00:27:59;20.50;95.00
6724;DHT22;3399;52.530;13.304;2022-08-03T00:30:25;20.40;95.50
6724;DHT22;3399;52.530;13.304;2022-08-03T00:32:50;20.40;95.60
6724;DHT22;3399;52.530;13.304;2022-08-03T00:35:16;20.50;95.90
6724;DHT22;3399;52.530;13.304;2022-08-03T00:37:41;20.60;96.10
6724;DHT22;3399;52.530;13.304;2022-08-03T00:40:07;20.70;96.20
6724;DHT22;3399;52.530;13.304;2022-08-03T00:42:33;20.80;95.40
6724;DHT22;3399;52.530;13.304;2022-08-03T00:44:58;20.70;95.80
6724;DHT22;3399;52.530;13.304;2022-08-03T00:47:24;20.80;95.30
6724;DHT22;3399;52.530;13.304;2022-08-03T00:49:49;20.80;95.30
6724;DHT22;3399;52.530;13.304;2022-08-03T00:52:14;20.90;95.00
6724;DHT22;3399;52.530;13.304;2022-08-03T00:54:41;21.00;94.80
6724;DHT22;3399;52.530;13.304;2022-08-03T00:57:06;21.00;94.40
6724;DHT22;3399;52.530;13.304;2022-08-03T00:59:32;21.00;94.50
6724;DHT22;3399;52.530;13.304;2022-08-03T01:01:57;21.00;94.50
6724;DHT22;3399;52.530;13.304;2022-08-03T01:04:23;20.90;94.70
6724;DHT22;3399;52.530;13.304;2022-08-03T01:06:51;20.90;94.90
6724;DHT22;3399;52.530;13.304;2022-08-03T01:09:38;21.00;94.10
6724;DHT22;3399;52.530;13.304;2022-08-03T01:12:54;21.00;93.80
6724;DHT22;3399;52.530;13.304;2022-08-03T01:14:54;21.10;92.60
6724;DHT22;3399;52.530;13.304;2022-08-03T01:17:23;21.10;92.10
6724;DHT22;3399;52.530;13.304;2022-08-03T01:19:53;21.10;92.00
6724;DHT22;3399;52.530;13.304;2022-08-03T01:30:17;21.40;90.00
6724;DHT22;3399;52.530;13.304;2022-08-03T01:32:45;21.40;89.50
6724;DHT22;3399;52.530;13.304;2022-08-03T01:35:13;21.40;89.10
6724;DHT22;3399;52.530;13.304;2022-08-03T01:37:47;21.40;90.20
6724;DHT22;3399;52.530;13.304;2022-08-03T01:40:14;21.40;88.90
6724;DHT22;3399;52.530;13.304;2022-08-03T01:42:40;21.40;89.00
6724;DHT22;3399;52.530;13.304;2022-08-03T01:45:07;21.40;89.30
6724;DHT22;3399;52.530;13.304;2022-08-03T01:47:34;21.40;89.20
6724;DHT22;3399;52.530;13.304;2022-08-03T01:49:59;21.30;89.70
6724;DHT22;3399;52.530;13.304;2022-08-03T01:52:26;21.40;89.90
6724;DHT22;3399;52.530;13.304;2022-08-03T01:54:52;21.40;89.00
6724;DHT22;3399;52.530;13.304;2022-08-03T01:57:18;21.50;87.90
6724;DHT22;3399;52.530;13.304;2022-08-03T01:59:44;21.50;87.70
6724;DHT22;3399;52.530;13.304;2022-08-03T02:02:11;21.50;87.90
6724;DHT22;3399;52.530;13.304;2022-08-03T02:04:37;21.50;87.70
6724;DHT22;3399;52.530;13.304;2022-08-03T02:07:03;21.50;87.90
6724;DHT22;3399;52.530;13.304;2022-08-03T02:09:29;21.50;88.70
6724;DHT22;3399;52.530;13.304;2022-08-03T02:11:55;21.40;89.00
6724;DHT22;3399;52.530;13.304;2022-08-03T02:14:21;21.40;88.60
6724;DHT22;3399;52.530;13.304;2022-08-03T02:16:48;21.40;88.20
6724;DHT22;3399;52.530;13.304;2022-08-03T02:19:14;21.50;88.70
6724;DHT22;3399;52.530;13.304;2022-08-03T02:21:41;21.50;88.00
6724;DHT22;3399;52.530;13.304;2022-08-03T02:24:08;21.60;88.30
6724;DHT22;3399;52.530;13.304;2022-08-03T02:26:34;21.50;88.70
6724;DHT22;3399;52.530;13.304;2022-08-03T02:29:02;21.50;88.70
6724;DHT22;3399;52.530;13.304;2022-08-03T02:31:30;21.60;86.90
6724;DHT22;3399;52.530;13.304;2022-08-03T02:33:59;21.60;87.30
6724;DHT22;3399;52.530;13.304;2022-08-03T02:36:27;21.50;87.90
6724;DHT22;3399;52.530;13.304;2022-08-03T02:38:53;21.60;86.40
6724;DHT22;3399;52.530;13.304;2022-08-03T02:41:21;21.60;86.60
6724;DHT22;3399;52.530;13.304;2022-08-03T02:43:48;21.60;85.70
6724;DHT22;3399;52.530;13.304;2022-08-03T02:46:16;21.60;86.50
6724;DHT22;3399;52.530;13.304;2022-08-03T02:48:42;21.50;87.40
6724;DHT22;3399;52.530;13.304;2022-08-03T02:51:09;21.40;87.70
6724;DHT22;3399;52.530;13.304;2022-08-03T02:53:35;21.30;86.90
6724;DHT22;3399;52.530;13.304;2022-08-03T02:56:00;21.30;87.60
6724;DHT22;3399;52.530;13.304;2022-08-03T02:58:27;21.50;86.00
6724;DHT22;3399;52.530;13.304;2022-08-03T03:00:53;21.50;85.30
6724;DHT22;3399;52.530;13.304;2022-08-03T03:03:20;21.50;85.60
6724;DHT22;3399;52.530;13.304;2022-08-03T03:05:46;21.40;85.50
6724;DHT22;3399;52.530;13.304;2022-08-03T03:08:12;21.40;85.40
6724;DHT22;3399;52.530;13.304;2022-08-03T03:10:38;21.40;86.70
6724;DHT22;3399;52.530;13.304;2022-08-03T03:13:04;21.20;86.90
6724;DHT22;3399;52.530;13.304;2022-08-03T03:15:30;21.10;87.40
6724;DHT22;3399;52.530;13.304;2022-08-03T03:17:56;21.10;88.20
6724;DHT22;3399;52.530;13.304;2022-08-03T03:20:23;21.10;88.60
6724;DHT22;3399;52.530;13.304;2022-08-03T03:22:49;21.20;88.10
6724;DHT22;3399;52.530;13.304;2022-08-03T03:25:15;21.30;88.40
6724;DHT22;3399;52.530;13.304;2022-08-03T03:27:40;21.20;88.00
6724;DHT22;3399;52.530;13.304;2022-08-03T03:30:06;21.30;88.00
6724;DHT22;3399;52.530;13.304;2022-08-03T03:32:32;21.30;86.40
6724;DHT22;3399;52.530;13.304;2022-08-03T03:34:58;21.30;86.80
6724;DHT22;3399;52.530;13.304;2022-08-03T03:37:25;21.30;86.30
6724;DHT22;3399;52.530;13.304;2022-08-03T03:39:52;21.20;86.80
6724;DHT22;3399;52.530;13.304;2022-08-03T03:42:17;21.20;87.00
6724;DHT22;3399;52.530;13.304;2022-08-03T03:44:42;21.10;87.40
6724;DHT22;3399;52.530;13.304;2022-08-03T03:47:08;21.00;88.50
6724;DHT22;3399;52.530;13.304;2022-08-03T03:49:33;21.00;88.90
6724;DHT22;3399;52.530;13.304;2022-08-03T03:52:00;21.10;88.50
6724;DHT22;3399;52.530;13.304;2022-08-03T03:54:25;21.00;89.40
6724;DHT22;3399;52.530;13.304;2022-08-03T03:56:51;20.90;89.60
6724;DHT22;3399;52.530;13.304;2022-08-03T03:59:16;20.90;88.50
6724;DHT22;3399;52.530;13.304;2022-08-03T04:01:42;21.10;87.60
6724;DHT22;3399;52.530;13.304;2022-08-03T04:04:09;21.10;86.90
6724;DHT22;3399;52.530;13.304;2022-08-03T04:06:53;21.10;86.30
6724;DHT22;3399;52.530;13.304;2022-08-03T04:09:37;21.20;85.30
6724;DHT22;3399;52.530;13.304;2022-08-03T04:12:23;21.20;85.50
6724;DHT22;3399;52.530;13.304;2022-08-03T04:14:50;21.30;85.10
6724;DHT22;3399;52.530;13.304;2022-08-03T04:17:17;21.30;85.20
6724;DHT22;3399;52.530;13.304;2022-08-03T04:19:44;21.20;84.90
6724;DHT22;3399;52.530;13.304;2022-08-03T04:22:13;21.30;83.80
6724;DHT22;3399;52.530;13.304;2022-08-03T04:24:40;21.30;83.60
6724;DHT22;3399;52.530;13.304;2022-08-03T04:27:06;21.30;83.30
6724;DHT22;3399;52.530;13.304;2022-08-03T04:29:34;21.40;83.20
6724;DHT22;3399;52.530;13.304;2022-08-03T04:32:00;21.40;82.40
6724;DHT22;3399;52.530;13.304;2022-08-03T04:34:26;21.40;82.60
6724;DHT22;3399;52.530;13.304;2022-08-03T04:36:52;21.40;82.50
6724;DHT22;3399;52.530;13.304;2022-08-03T04:39:25;21.40;81.70
6724;DHT22;3399;52.530;13.304;2022-08-03T04:41:56;21.50;81.50
6724;DHT22;3399;52.530;13.304;2022-08-03T04:44:22;21.50;81.20
6724;DHT22;3399;52.530;13.304;2022-08-03T04:46:48;21.50;81.00
6724;DHT22;3399;52.530;13.304;2022-08-03T04:49:13;21.40;81.80
6724;DHT22;3399;52.530;13.304;2022-08-03T04:51:39;21.60;80.50
6724;DHT22;3399;52.530;13.304;2022-08-03T04:54:04;21.50;81.10
6724;DHT22;3399;52.530;13.304;2022-08-03T04:56:31;21.50;81.00
6724;DHT22;3399;52.530;13.304;2022-08-03T04:58:58;21.50;80.70
6724;DHT22;3399;52.530;13.304;2022-08-03T05:01:24;21.60;80.70
6724;DHT22;3399;52.530;13.304;2022-08-03T05:03:49;21.70;80.90
6724;DHT22;3399;52.530;13.304;2022-08-03T05:06:15;21.70;79.40
6724;DHT22;3399;52.530;13.304;2022-08-03T05:08:41;21.80;79.70
6724;DHT22;3399;52.530;13.304;2022-08-03T05:11:06;21.90;79.20
6724;DHT22;3399;52.530;13.304;2022-08-03T05:13:32;21.90;79.30
6724;DHT22;3399;52.530;13.304;2022-08-03T05:15:57;21.90;78.80
6724;DHT22;3399;52.530;13.304;2022-08-03T05:18:22;21.90;79.10
6724;DHT22;3399;52.530;13.304;2022-08-03T05:20:48;22.00;79.20
6724;DHT22;3399;52.530;13.304;2022-08-03T05:23:13;22.10;78.80
6724;DHT22;3399;52.530;13.304;2022-08-03T05:25:39;22.10;78.60
6724;DHT22;3399;52.530;13.304;2022-08-03T05:28:05;22.20;78.20
6724;DHT22;3399;52.530;13.304;2022-08-03T05:30:30;22.20;78.30
6724;DHT22;3399;52.530;13.304;2022-08-03T05:32:55;22.30;78.50
6724;DHT22;3399;52.530;13.304;2022-08-03T05:35:21;22.40;78.60
6724;DHT22;3399;52.530;13.304;2022-08-03T05:37:46;22.40;78.60
6724;DHT22;3399;52.530;13.304;2022-08-03T05:40:12;22.60;78.60
6724;DHT22;3399;52.530;13.304;2022-08-03T05:42:38;22.70;78.80
6724;DHT22;3399;52.530;13.304;2022-08-03T05:45:04;22.80;78.60
6724;DHT22;3399;52.530;13.304;2022-08-03T05:47:39;22.90;79.30
6724;DHT22;3399;52.530;13.304;2022-08-03T05:50:05;22.90;78.60
6724;DHT22;3399;52.530;13.304;2022-08-03T05:52:30;23.00;78.40
6724;DHT22;3399;52.530;13.304;2022-08-03T05:54:55;23.20;77.90
6724;DHT22;3399;52.530;13.304;2022-08-03T05:57:21;23.20;77.70
6724;DHT22;3399;52.530;13.304;2022-08-03T05:59:46;23.30;77.70
6724;DHT22;3399;52.530;13.304;2022-08-03T06:02:12;23.40;77.70
6724;DHT22;3399;52.530;13.304;2022-08-03T06:04:37;23.40;77.40
6724;DHT22;3399;52.530;13.304;2022-08-03T06:07:02;23.50;77.90
6724;DHT22;3399;52.530;13.304;2022-08-03T06:09:28;23.60;77.70
6724;DHT22;3399;52.530;13.304;2022-08-03T06:11:53;23.70;77.60
6724;DHT22;3399;52.530;13.304;2022-08-03T06:14:19;23.80;77.30
6724;DHT22;3399;52.530;13.304;2022-08-03T06:16:44;23.90;77.40
6724;DHT22;3399;52.530;13.304;2022-08-03T06:19:10;24.10;76.20
6724;DHT22;3399;52.530;13.304;2022-08-03T06:21:35;24.20;75.10
6724;DHT22;3399;52.530;13.304;2022-08-03T06:24:00;24.30;75.70
6724;DHT22;3399;52.530;13.304;2022-08-03T06:26:26;24.30;74.20
6724;DHT22;3399;52.530;13.304;2022-08-03T06:28:52;24.40;74.90
6724;DHT22;3399;52.530;13.304;2022-08-03T06:31:19;24.50;74.60
6724;DHT22;3399;52.530;13.304;2022-08-03T06:33:44;24.50;74.80
6724;DHT22;3399;52.530;13.304;2022-08-03T06:36:10;24.70;73.10
6724;DHT22;3399;52.530;13.304;2022-08-03T06:38:35;24.80;72.90
6724;DHT22;3399;52.530;13.304;2022-08-03T06:41:00;24.90;73.10
6724;DHT22;3399;52.530;13.304;2022-08-03T06:43:26;24.90;73.30
6724;DHT22;3399;52.530;13.304;2022-08-03T06:45:51;25.00;72.60
6724;DHT22;3399;52.530;13.304;2022-08-03T06:48:17;25.10;72.10
6724;DHT22;3399;52.530;13.304;2022-08-03T06:50:42;25.20;71.90
6724;DHT22;3399;52.530;13.304;2022-08-03T06:53:08;25.20;70.90
6724;DHT22;3399;52.530;13.304;2022-08-03T06:55:34;25.20;70.40
6724;DHT22;3399;52.530;13.304;2022-08-03T06:57:59;25.30;69.90
6724;DHT22;3399;52.530;13.304;2022-08-03T07:00:25;25.50;70.00
6724;DHT22;3399;52.530;13.304;2022-08-03T07:02:52;25.50;69.90
6724;DHT22;3399;52.530;13.304;2022-08-03T07:05:17;25.50;69.20
6724;DHT22;3399;52.530;13.304;2022-08-03T07:07:43;25.60;69.60
6724;DHT22;3399;52.530;13.304;2022-08-03T07:10:08;25.70;69.50
6724;DHT22;3399;52.530;13.304;2022-08-03T07:12:36;25.80;68.80
6724;DHT22;3399;52.530;13.304;2022-08-03T07:15:02;25.80;69.70
6724;DHT22;3399;52.530;13.304;2022-08-03T07:17:28;25.90;68.80
6724;DHT22;3399;52.530;13.304;2022-08-03T07:19:54;26.00;68.90
6724;DHT22;3399;52.530;13.304;2022-08-03T07:22:19;26.10;68.20
6724;DHT22;3399;52.530;13.304;2022-08-03T07:24:45;26.20;68.10
6724;DHT22;3399;52.530;13.304;2022-08-03T07:27:11;26.30;67.90
6724;DHT22;3399;52.530;13.304;2022-08-03T07:29:37;26.40;67.20
6724;DHT22;3399;52.530;13.304;2022-08-03T07:32:02;26.50;67.20
6724;DHT22;3399;52.530;13.304;2022-08-03T07:34:28;26.50;67.20
6724;DHT22;3399;52.530;13.304;2022-08-03T07:36:54;26.70;66.50
6724;DHT22;3399;52.530;13.304;2022-08-03T07:39:19;26.80;65.90
6724;DHT22;3399;52.530;13.304;2022-08-03T07:41:45;26.80;65.90
6724;DHT22;3399;52.530;13.304;2022-08-03T07:44:10;26.80;65.60
6724;DHT22;3399;52.530;13.304;2022-08-03T07:46:36;26.80;66.00
6724;DHT22;3399;52.530;13.304;2022-08-03T07:49:01;26.90;65.10
6724;DHT22;3399;52.530;13.304;2022-08-03T07:51:27;26.90;65.60
6724;DHT22;3399;52.530;13.304;2022-08-03T07:53:52;27.00;64.70
6724;DHT22;3399;52.530;13.304;2022-08-03T07:56:19;26.90;65.10
6724;DHT22;3399;52.530;13.304;2022-08-03T07:58:45;27.20;64.40
6724;DHT22;3399;52.530;13.304;2022-08-03T08:01:10;27.30;64.10
6724;DHT22;3399;52.530;13.304;2022-08-03T08:03:36;27.20;63.70
6724;DHT22;3399;52.530;13.304;2022-08-03T08:06:01;27.20;63.40
6724;DHT22;3399;52.530;13.304;2022-08-03T08:08:27;27.30;63.00
6724;DHT22;3399;52.530;13.304;2022-08-03T08:10:52;27.40;61.10
6724;DHT22;3399;52.530;13.304;2022-08-03T08:13:18;27.40;61.80
6724;DHT22;3399;52.530;13.304;2022-08-03T08:15:43;27.40;61.00
6724;DHT22;3399;52.530;13.304;2022-08-03T08:18:09;27.50;60.90
6724;DHT22;3399;52.530;13.304;2022-08-03T08:20:34;27.30;61.20
6724;DHT22;3399;52.530;13.304;2022-08-03T08:23:02;27.40;60.10
6724;DHT22;3399;52.530;13.304;2022-08-03T08:25:28;27.60;60.00
6724;DHT22;3399;52.530;13.304;2022-08-03T08:27:55;27.60;59.30
6724;DHT22;3399;52.530;13.304;2022-08-03T08:30:21;27.70;58.50
6724;DHT22;3399;52.530;13.304;2022-08-03T08:32:47;27.70;58.00
6724;DHT22;3399;52.530;13.304;2022-08-03T08:35:13;27.80;58.80
6724;DHT22;3399;52.530;13.304;2022-08-03T08:37:39;27.80;58.80
6724;DHT22;3399;52.530;13.304;2022-08-03T08:40:05;27.90;58.70
6724;DHT22;3399;52.530;13.304;2022-08-03T08:42:30;28.10;57.50
6724;DHT22;3399;52.530;13.304;2022-08-03T08:44:56;28.10;57.30
6724;DHT22;3399;52.530;13.304;2022-08-03T08:47:23;28.30;56.60
6724;DHT22;3399;52.530;13.304;2022-08-03T08:49:51;28.00;57.10
6724;DHT22;3399;52.530;13.304;2022-08-03T08:52:18;28.00;56.90
6724;DHT22;3399;52.530;13.304;2022-08-03T08:54:44;28.10;57.70
6724;DHT22;3399;52.530;13.304;2022-08-03T08:57:10;28.30;55.60
6724;DHT22;3399;52.530;13.304;2022-08-03T08:59:36;28.40;55.40
6724;DHT22;3399;52.530;13.304;2022-08-03T09:02:01;28.50;55.10
6724;DHT22;3399;52.530;13.304;2022-08-03T09:04:28;28.50;55.70
6724;DHT22;3399;52.530;13.304;2022-08-03T09:06:54;28.20;56.00
6724;DHT22;3399;52.530;13.304;2022-08-03T09:09:19;27.90;56.70
6724;DHT22;3399;52.530;13.304;2022-08-03T09:11:46;28.40;56.50
6724;DHT22;3399;52.530;13.304;2022-08-03T09:14:11;28.70;55.70
6724;DHT22;3399;52.530;13.304;2022-08-03T09:16:37;28.60;55.70
6724;DHT22;3399;52.530;13.304;2022-08-03T09:19:12;28.70;56.00
6724;DHT22;3399;52.530;13.304;2022-08-03T09:21:38;28.80;55.60
6724;DHT22;3399;52.530;13.304;2022-08-03T09:24:07;28.90;55.70
6724;DHT22;3399;52.530;13.304;2022-08-03T09:26:33;29.10;55.50
6724;DHT22;3399;52.530;13.304;2022-08-03T09:29:00;29.10;55.30
6724;DHT22;3399;52.530;13.304;2022-08-03T09:31:35;29.20;55.50
6724;DHT22;3399;52.530;13.304;2022-08-03T09:34:05;29.20;54.10
6724;DHT22;3399;52.530;13.304;2022-08-03T09:36:34;29.30;54.30
6724;DHT22;3399;52.530;13.304;2022-08-03T09:39:04;29.30;53.80
6724;DHT22;3399;52.530;13.304;2022-08-03T09:41:31;29.30;53.40
6724;DHT22;3399;52.530;13.304;2022-08-03T09:43:56;29.30;53.60
6724;DHT22;3399;52.530;13.304;2022-08-03T09:46:22;29.30;53.90
6724;DHT22;3399;52.530;13.304;2022-08-03T09:48:47;29.40;54.00
6724;DHT22;3399;52.530;13.304;2022-08-03T09:51:12;29.50;54.10
6724;DHT22;3399;52.530;13.304;2022-08-03T09:53:43;29.60;54.10
6724;DHT22;3399;52.530;13.304;2022-08-03T09:56:08;29.70;53.00
6724;DHT22;3399;52.530;13.304;2022-08-03T09:58:38;29.70;52.70
6724;DHT22;3399;52.530;13.304;2022-08-03T10:01:08;29.70;53.60
6724;DHT22;3399;52.530;13.304;2022-08-03T10:03:35;29.60;52.60
6724;DHT22;3399;52.530;13.304;2022-08-03T10:06:17;29.80;53.30
6724;DHT22;3399;52.530;13.304;2022-08-03T10:09:03;29.80;53.20
6724;DHT22;3399;52.530;13.304;2022-08-03T10:11:29;29.80;52.50
6724;DHT22;3399;52.530;13.304;2022-08-03T10:13:55;29.80;53.10
6724;DHT22;3399;52.530;13.304;2022-08-03T10:16:20;29.90;52.70
6724;DHT22;3399;52.530;13.304;2022-08-03T10:18:46;29.90;52.80
6724;DHT22;3399;52.530;13.304;2022-08-03T10:21:11;30.10;53.20
6724;DHT22;3399;52.530;13.304;2022-08-03T10:23:38;30.20;52.00
6724;DHT22;3399;52.530;13.304;2022-08-03T10:26:06;30.10;52.40
6724;DHT22;3399;52.530;13.304;2022-08-03T10:28:35;30.30;51.90
6724;DHT22;3399;52.530;13.304;2022-08-03T10:31:02;30.30;52.70
6724;DHT22;3399;52.530;13.304;2022-08-03T10:33:31;30.30;52.40
6724;DHT22;3399;52.530;13.304;2022-08-03T10:35:58;30.40;52.30
6724;DHT22;3399;52.530;13.304;2022-08-03T10:38:27;30.60;52.40
6724;DHT22;3399;52.530;13.304;2022-08-03T10:40:53;30.80;52.10
6724;DHT22;3399;52.530;13.304;2022-08-03T10:43:25;31.10;52.50
6724;DHT22;3399;52.530;13.304;2022-08-03T10:45:51;31.20;52.60
6724;DHT22;3399;52.530;13.304;2022-08-03T10:48:17;31.20;50.90
6724;DHT22;3399;52.530;13.304;2022-08-03T10:50:43;31.10;50.60
6724;DHT22;3399;52.530;13.304;2022-08-03T10:53:08;31.30;51.90
6724;DHT22;3399;52.530;13.304;2022-08-03T10:55:38;31.40;50.00
6724;DHT22;3399;52.530;13.304;2022-08-03T11:01:08;31.40;50.60
6724;DHT22;3399;52.530;13.304;2022-08-03T11:04:13;32.00;49.70
6724;DHT22;3399;52.530;13.304;2022-08-03T11:06:20;32.10;49.40
6724;DHT22;3399;52.530;13.304;2022-08-03T11:08:47;32.10;49.00
6724;DHT22;3399;52.530;13.304;2022-08-03T11:13:46;32.80;47.90
6724;DHT22;3399;52.530;13.304;2022-08-03T11:16:21;32.70;48.20
6724;DHT22;3399;52.530;13.304;2022-08-03T11:21:49;33.00;46.70
6724;DHT22;3399;52.530;13.304;2022-08-03T11:24:07;33.40;46.90
6724;DHT22;3399;52.530;13.304;2022-08-03T11:26:32;34.10;46.10
6724;DHT22;3399;52.530;13.304;2022-08-03T11:31:43;33.30;45.80
6724;DHT22;3399;52.530;13.304;2022-08-03T11:34:10;33.60;45.80
6724;DHT22;3399;52.530;13.304;2022-08-03T11:39:20;34.20;45.20
6724;DHT22;3399;52.530;13.304;2022-08-03T11:41:45;33.50;46.00
6724;DHT22;3399;52.530;13.304;2022-08-03T11:44:38;33.10;46.20
6724;DHT22;3399;52.530;13.304;2022-08-03T11:46:56;32.90;45.90
6724;DHT22;3399;52.530;13.304;2022-08-03T11:49:23;33.20;45.90
6724;DHT22;3399;52.530;13.304;2022-08-03T11:51:51;33.20;45.30
6724;DHT22;3399;52.530;13.304;2022-08-03T11:54:18;32.80;46.10
6724;DHT22;3399;52.530;13.304;2022-08-03T11:56:47;33.80;45.10
6724;DHT22;3399;52.530;13.304;2022-08-03T11:59:13;34.30;45.50
6724;DHT22;3399;52.530;13.304;2022-08-03T12:01:38;34.10;45.70
6724;DHT22;3399;52.530;13.304;2022-08-03T12:04:04;34.70;44.60
6724;DHT22;3399;52.530;13.304;2022-08-03T12:06:30;34.20;44.70
6724;DHT22;3399;52.530;13.304;2022-08-03T12:09:16;33.70;44.70
6724;DHT22;3399;52.530;13.304;2022-08-03T12:11:41;35.00;43.30
6724;DHT22;3399;52.530;13.304;2022-08-03T12:14:07;34.60;43.30
6724;DHT22;3399;52.530;13.304;2022-08-03T12:16:32;34.80;43.00
6724;DHT22;3399;52.530;13.304;2022-08-03T12:18:58;34.50;43.10
6724;DHT22;3399;52.530;13.304;2022-08-03T12:21:24;34.40;43.10
6724;DHT22;3399;52.530;13.304;2022-08-03T12:23:50;34.40;44.00
6724;DHT22;3399;52.530;13.304;2022-08-03T12:26:15;33.60;45.90
6724;DHT22;3399;52.530;13.304;2022-08-03T12:28:47;35.00;43.30
6724;DHT22;3399;52.530;13.304;2022-08-03T12:31:13;34.50;42.90
6724;DHT22;3399;52.530;13.304;2022-08-03T12:33:54;35.30;42.50
6724;DHT22;3399;52.530;13.304;2022-08-03T12:36:20;35.40;41.70
6724;DHT22;3399;52.530;13.304;2022-08-03T12:38:52;35.60;42.20
6724;DHT22;3399;52.530;13.304;2022-08-03T12:41:25;35.10;42.00
6724;DHT22;3399;52.530;13.304;2022-08-03T12:43:51;34.30;43.60
6724;DHT22;3399;52.530;13.304;2022-08-03T12:46:18;34.40;43.50
6724;DHT22;3399;52.530;13.304;2022-08-03T12:51:28;34.80;43.50
6724;DHT22;3399;52.530;13.304;2022-08-03T12:53:55;34.30;43.50
6724;DHT22;3399;52.530;13.304;2022-08-03T12:56:20;34.20;44.60
6724;DHT22;3399;52.530;13.304;2022-08-03T12:58:46;34.90;45.10
6724;DHT22;3399;52.530;13.304;2022-08-03T13:01:15;34.80;42.90
6724;DHT22;3399;52.530;13.304;2022-08-03T13:03:41;35.50;42.50
6724;DHT22;3399;52.530;13.304;2022-08-03T13:06:10;34.60;43.60
6724;DHT22;3399;52.530;13.304;2022-08-03T13:08:35;35.30;42.90
6724;DHT22;3399;52.530;13.304;2022-08-03T13:11:16;35.30;43.40
6724;DHT22;3399;52.530;13.304;2022-08-03T13:13:41;35.30;43.00
6724;DHT22;3399;52.530;13.304;2022-08-03T13:16:07;35.30;43.00
6724;DHT22;3399;52.530;13.304;2022-08-03T13:18:32;36.40;42.40
6724;DHT22;3399;52.530;13.304;2022-08-03T13:20:58;37.20;40.70
6724;DHT22;3399;52.530;13.304;2022-08-03T13:23:23;35.50;41.20
6724;DHT22;3399;52.530;13.304;2022-08-03T13:25:49;35.50;41.30
6724;DHT22;3399;52.530;13.304;2022-08-03T13:28:14;36.80;41.60
6724;DHT22;3399;52.530;13.304;2022-08-03T13:30:39;37.40;39.80
6724;DHT22;3399;52.530;13.304;2022-08-03T13:33:05;37.10;39.50
6724;DHT22;3399;52.530;13.304;2022-08-03T13:35:30;37.50;39.20
6724;DHT22;3399;52.530;13.304;2022-08-03T13:37:56;36.60;40.20
6724;DHT22;3399;52.530;13.304;2022-08-03T13:40:21;36.50;39.60
6724;DHT22;3399;52.530;13.304;2022-08-03T13:42:46;36.60;40.90
6724;DHT22;3399;52.530;13.304;2022-08-03T13:45:12;36.20;40.30
6724;DHT22;3399;52.530;13.304;2022-08-03T13:47:37;36.60;40.60
6724;DHT22;3399;52.530;13.304;2022-08-03T13:50:03;36.30;40.30
6724;DHT22;3399;52.530;13.304;2022-08-03T13:52:29;36.40;40.70
6724;DHT22;3399;52.530;13.304;2022-08-03T13:54:55;36.90;39.70
6724;DHT22;3399;52.530;13.304;2022-08-03T13:57:20;36.10;40.20
6724;DHT22;3399;52.530;13.304;2022-08-03T13:59:45;35.90;41.00
6724;DHT22;3399;52.530;13.304;2022-08-03T14:02:11;35.60;40.90
6724;DHT22;3399;52.530;13.304;2022-08-03T14:04:36;36.40;40.60
6724;DHT22;3399;52.530;13.304;2022-08-03T14:07:02;35.70;40.20
6724;DHT22;3399;52.530;13.304;2022-08-03T14:09:27;35.90;40.80
6724;DHT22;3399;52.530;13.304;2022-08-03T14:11:53;37.30;40.50
6724;DHT22;3399;52.530;13.304;2022-08-03T14:14:18;36.10;39.70
6724;DHT22;3399;52.530;13.304;2022-08-03T14:16:43;36.30;40.60
6724;DHT22;3399;52.530;13.304;2022-08-03T14:19:09;36.70;39.70
6724;DHT22;3399;52.530;13.304;2022-08-03T14:21:34;37.30;39.80
6724;DHT22;3399;52.530;13.304;2022-08-03T14:24:00;37.90;39.30
6724;DHT22;3399;52.530;13.304;2022-08-03T14:26:26;38.10;38.60
6724;DHT22;3399;52.530;13.304;2022-08-03T14:28:51;36.70;39.00
6724;DHT22;3399;52.530;13.304;2022-08-03T14:31:16;37.90;39.40
6724;DHT22;3399;52.530;13.304;2022-08-03T14:33:42;38.60;38.10
6724;DHT22;3399;52.530;13.304;2022-08-03T14:36:07;39.00;37.30
6724;DHT22;3399;52.530;13.304;2022-08-03T14:38:33;37.20;39.70
6724;DHT22;3399;52.530;13.304;2022-08-03T14:40:58;36.90;39.30
6724;DHT22;3399;52.530;13.304;2022-08-03T14:43:23;38.30;37.80
6724;DHT22;3399;52.530;13.304;2022-08-03T14:45:50;37.10;39.60
6724;DHT22;3399;52.530;13.304;2022-08-03T14:48:21;38.40;38.10
6724;DHT22;3399;52.530;13.304;2022-08-03T14:50:46;39.20;36.70
6724;DHT22;3399;52.530;13.304;2022-08-03T14:53:12;38.70;37.30
6724;DHT22;3399;52.530;13.304;2022-08-03T14:55:37;38.40;38.30
6724;DHT22;3399;52.530;13.304;2022-08-03T14:58:03;38.10;37.10
6724;DHT22;3399;52.530;13.304;2022-08-03T15:00:34;36.80;38.00
6724;DHT22;3399;52.530;13.304;2022-08-03T15:02:59;37.70;38.10
6724;DHT22;3399;52.530;13.304;2022-08-03T15:05:25;37.30;39.30
6724;DHT22;3399;52.530;13.304;2022-08-03T15:07:50;38.30;37.80
6724;DHT22;3399;52.530;13.304;2022-08-03T15:10:16;37.90;39.00
6724;DHT22;3399;52.530;13.304;2022-08-03T15:12:41;38.00;38.00
6724;DHT22;3399;52.530;13.304;2022-08-03T15:15:07;37.80;38.50
6724;DHT22;3399;52.530;13.304;2022-08-03T15:17:32;38.30;38.10
6724;DHT22;3399;52.530;13.304;2022-08-03T15:19:57;39.60;36.90
6724;DHT22;3399;52.530;13.304;2022-08-03T15:22:23;38.70;36.80
6724;DHT22;3399;52.530;13.304;2022-08-03T15:24:49;39.60;35.60
6724;DHT22;3399;52.530;13.304;2022-08-03T15:27:14;38.50;37.70
6724;DHT22;3399;52.530;13.304;2022-08-03T15:29:40;37.80;38.40
6724;DHT22;3399;52.530;13.304;2022-08-03T15:32:05;37.40;39.10
6724;DHT22;3399;52.530;13.304;2022-08-03T15:34:30;37.00;39.80
6724;DHT22;3399;52.530;13.304;2022-08-03T15:36:56;37.60;40.30
6724;DHT22;3399;52.530;13.304;2022-08-03T15:39:21;39.00;38.20
6724;DHT22;3399;52.530;13.304;2022-08-03T15:41:47;38.10;38.60
6724;DHT22;3399;52.530;13.304;2022-08-03T15:44:12;37.80;38.40
6724;DHT22;3399;52.530;13.304;2022-08-03T15:46:37;38.60;36.90
6724;DHT22;3399;52.530;13.304;2022-08-03T15:49:03;38.00;37.90
6724;DHT22;3399;52.530;13.304;2022-08-03T15:51:28;38.80;37.30
6724;DHT22;3399;52.530;13.304;2022-08-03T15:53:54;37.50;37.20
6724;DHT22;3399;52.530;13.304;2022-08-03T15:56:21;37.40;38.80
6724;DHT22;3399;52.530;13.304;2022-08-03T15:58:47;38.10;39.70
6724;DHT22;3399;52.530;13.304;2022-08-03T16:01:12;37.60;38.80
6724;DHT22;3399;52.530;13.304;2022-08-03T16:03:37;38.60;36.50
6724;DHT22;3399;52.530;13.304;2022-08-03T16:06:03;39.10;36.70